イルクーツク の空港の天気 - METARとTAF

イルクーツク国際空港 ( UIII / IKT ) - ロシア イルクーツク
飛行場実況気象(Metar)
観測時間08/05 03:30 IRKT (08/04 19:30 UTC)
風向・風速東 2m/s
視程5000m
天気現象もや
なし
気温12℃
湿度100%
気圧1009hPa
METARUIII 041930Z 09002MPS 5000 BR NSC 12/12 Q1009 R12/CLRD60 NOSIG RMK QFE715/0953
過去の天気等 Google飛行場航空写真 Wunderground天気予報

過去48時間のMETAR

飛行場予報(TAF)
発表時間: 8/05 01:00 IRKT (8/04 17:00 UTC)
予報対象時間: 5日2時 IRKT ~ 6日2時 IRKT
風向・風速不定 1m/s
視程2900m
天気現象もや
なし
5日2時 IRKT ~ 5日9時 IRKT に一時的に
視程300m
天気現象
全天を覆う雲 鉛直視程 30m
5日9時 IRKT ~ 5日10時 IRKT に徐々に
視程10km以上
天気現象運行に影響にある天気現象が終了
TAF UIII 041700Z 0418/0518 VRB01MPS 2900 BR NSC
TEMPO 0418/0501 0300 FG VV001
BECMG 0501/0502 9999 NSW